• Join FlightAware (Why Join?)
  • Login
  • US Flag 
09:30AM EDT


 

Airport Tracker/Info


-or-


 

Live Flight TrackerFlight Track Log ✈ SWA378 ✈ 10-Jun-2013 ✈ KSJC - KONT

Flight Track Log - Related Links

Times and Time Zones

All times are in EDT time to prevent confusion due to time zone crossing. See the SWA378 flight status page for this flight to view local times or setup timezone preferences in your user account.

Time Position Orientation Groundspeed Altitude Reporting Facility
EDT Latitude Longitude Course Direction KTS MPH feet Rate Location/Type
11:08AM 37.3167 -121.8833 141° Southeast 186 214 2,500  Level Northern Cal TRACON
11:09AM 37.3017 -121.8583 127° Southeast 202 232 3,300 1,980 Climbing Oakland Center
11:10AM 37.2486 -121.7969 137° Southeast 251 289 5,400 2,580 Climbing Oakland Center
11:11AM 37.1975 -121.7367 137° Southeast 287 330 8,600 3,360 Climbing Oakland Center
11:12AM 37.1250 -121.6439 134° Southeast 308 354 12,300 3,300 Climbing Oakland Center
11:13AM 37.0508 -121.5864 148° Southeast 331 381 15,400 2,640 Climbing Oakland Center
11:14AM 36.9678 -121.3815 141° Southeast  Level Estimated
11:14AM 36.9608 -121.5361 156° South 348 400 17,700  Level Oakland Center
11:15AM 36.8886 -121.4439 134° Southeast 369 425 20,200 2,520 Climbing Oakland Center
11:16AM 36.8072 -121.3464 136° Southeast 382 440 22,900 2,280 Climbing Oakland Center
11:17AM 36.7256 -121.2514 137° Southeast 396 456 24,900 1,980 Climbing Oakland Center
11:18AM 36.6431 -121.1481 135° Southeast 416 479 27,000 1,920 Climbing Oakland Center
11:19AM 36.5561 -121.0481 137° Southeast 426 490 28,900 1,620 Climbing Oakland Center
11:20AM 36.4683 -120.9425 136° Southeast 434 499 30,400 1,740 Climbing Oakland Center
11:21AM 36.3811 -120.8356 135° Southeast 441 507 32,500 1,860 Climbing Oakland Center
11:22AM 36.2947 -120.7328 136° Southeast 433 498 34,300 1,560 Climbing Oakland Center
11:23AM 36.2089 -120.6344 137° Southeast 425 489 35,800 1,200 Climbing Oakland Center
11:24AM 36.1219 -120.5319 136° Southeast 428 493 36,800 540 Climbing Oakland Center
11:25AM 36.0172 -120.4100 137° Southeast 432 497 37,000 60 Climbing Oakland Center
11:26AM 35.9308 -120.3067 136° Southeast 373 429 37,000  Level Oakland Center
11:27AM 35.8444 -120.2064 137° Southeast 428 493 37,000  Level Oakland Center
11:28AM 35.7561 -120.1050 137° Southeast 429 494 37,000  Level Oakland Center
11:29AM 35.6686 -120.0022 136° Southeast 431 496 37,000  Level Oakland Center
11:30AM 35.6103 -119.9092 128° Southeast 437 503 37,000  Level Los Angeles Center
11:31AM 35.5319 -119.7550 122° Southeast 440 506 37,000  Level Los Angeles Center
11:32AM 35.4653 -119.6283 123° Southeast 436 502 37,000  Level Oakland Center
11:33AM 35.4011 -119.5028 122° Southeast 439 505 37,000  Level Los Angeles Center
11:34AM 35.3353 -119.3772 123° Southeast 435 501 37,000  Level Los Angeles Center
11:35AM 35.2708 -119.2539 123° Southeast 432 497 37,000  Level Los Angeles Center
11:36AM 35.2061 -119.1317 123° Southeast 430 495 37,000 -240 Level Los Angeles Center
11:37AM 35.1278 -118.9850 123° Southeast 429 494 36,600 -660 Descending Los Angeles Center
11:38AM 35.0628 -118.8628 123° Southeast 430 495 35,700 -900 Descending Los Angeles Center
11:39AM 34.9961 -118.7367 123° Southeast 437 503 34,800 -1,680 Descending Los Angeles Center
11:40AM 34.9286 -118.6136 124° Southeast 440 506 32,300 -2,700 Descending Los Angeles Center
11:42AM 34.8536 -118.4736 123° Southeast 441 507 29,300 -1,920 Descending Los Angeles Center
11:43AM 34.7917 -118.3600 124° Southeast 440 506 28,400 -1,560 Descending Los Angeles Center
11:44AM 34.7114 -118.2114 123° Southeast 440 506 26,100 -2,460 Descending Los Angeles Center
11:45AM 34.6458 -118.0917 124° Southeast 433 498 23,400 -1,860 Descending Los Angeles Center
11:46AM 34.5906 -117.9756 120° Southeast 402 463 22,300 -1,740 Descending Los Angeles Center
11:47AM 34.5392 -117.8633 119° Southeast 388 447 19,900 -2,280 Descending Los Angeles Center
11:48AM 34.4875 -117.7519 119° Southeast 380 437 17,600 -2,400 Descending Los Angeles Center
11:49AM 34.4297 -117.6258 119° Southeast 361 415 15,000 -2,040 Descending Los Angeles Center
11:50AM 34.3819 -117.5217 119° Southeast 357 411 13,500 -1,260 Descending Los Angeles Center
11:51AM 34.3414 -117.4344 119° Southeast 319 367 12,400 -1,500 Descending Los Angeles Center
11:52AM 34.3006 -117.3503 120° Southeast 295 339 10,500 -1,740 Descending Los Angeles Center
11:53AM 34.2353 -117.2908 143° Southeast 239 275 8,900 -1,260 Descending Los Angeles Center
11:54AM 34.1844 -117.2511 147° Southeast 220 253 8,000 -1,080 Descending Los Angeles Center
11:55AM 34.1167 -117.2500 179° South 215 247 6,700 -1,380 Descending Southern California TRACON
11:56AM 34.0667 -117.2833 209° Southwest 223 257 5,200 -1,320 Descending Southern California TRACON
11:57AM 34.0500 -117.3500 253° West 224 258 4,100 -960 Descending Southern California TRACON
11:58AM 34.0500 -117.4167 270° West 202 232 3,300 -840 Descending Southern California TRACON
11:59AM 34.0500 -117.4833 270° West 181 208 2,500 -840 Descending Southern California TRACON
12:00PM 34.0500 -117.5333 270° West 134 154 1,700 -780 Descending Southern California TRACON
12:01PM 34.0667 -117.5833 292° West 217 250 1,000 -720 Descending Southern California TRACON
12:03PM 34.0500 -117.6000 270° West  Level FlightAware Approximate
12:10PM 34.0560 -117.6012 270° West  Level Estimated
12:11PM 34.0500 -117.6000 270° West  Level FlightAware Approximate
12:12PM 34.0560 -117.6012 270° West  Level Estimated